Impacts TAF Board INFO
FOR SITUATIONAL AWARENESS. NOT TO BE USED FOR FLIGHT PLANNING PURPOSES.
IDs:

KMDW - Chicago/Midway Intl, IL, US

Issued at 2059 UTC 19 Oct 2017
Updated at 2328 UTC 19 Oct 2017
Potential Impact None Slight Moderate High
Time2253Z 20/00Z 20/01Z 20/02Z 20/03Z 20/04Z 20/05Z 20/06Z 20/07Z 20/08Z 20/09Z 20/10Z 20/11Z 20/12Z>>
Type OBS PRVL PRVL PRVL PRVL PRVL PRVL PRVL PRVL PRVL PRVL PRVL PRVL PRVL
VIS 10 >6 >6 >6 >6 >6 >6 >6 >6 >6 >6 >6 >6 >6
CIG 250 -- -- -- -- -- -- -- -- -- -- -- -- --
Cover BKN SKC SKC SKC SKC SKC SKC SKC SKC SKC SKC SKC SKC SKC
FltCat VFR VFR VFR VFR VFR VFR VFR VFR VFR VFR VFR VFR VFR VFR
WX -- -- -- -- -- -- -- -- -- -- -- -- -- --
WDir VRB 150 150 150 150 150 150 150 150 150 150 150 150 150
WSpd 6 5 5 5 5 5 5 5 5 5 5 5 5 5
WGst -- -- -- -- -- -- -- -- -- -- -- -- -- --

Raw TAF
KMDW 192059Z 1921/2018 12008KT P6SM FEW250
  FM192300 15005KT P6SM SKC
  FM201600 19011G17KT P6SM SKC


Raw METAR
KMDW 192253Z VRB06KT 10SM BKN250 17/M02 A3017 RMK AO2 SLP214 T01721022
KMDW 192153Z 09007KT 10SM BKN250 18/M04 A3017 RMK AO2 SLP216 T01831044
KMDW 192053Z 11005KT 10SM BKN250 19/M05 A3017 RMK AO2 SLP215 T01941050 55004

METAR Board
Radar Display
Forecast Discussion

FOR SITUATIONAL AWARENESS. NOT TO BE USED FOR FLIGHT PLANNING PURPOSES.